Time;durP1;ratioP1;P1;durP2;ratioP2;P2;SDS_P1;SDS_P2;PMS_P1;PMS_P2;Temp;Humidity;BMP_temperature;BMP_pressure;BME280_temperature;BME280_humidity;BME280_pressure;Samples;Min_cycle;Max_cycle;Signal;HPM_P1;HPM_P2
2020/12/29 00:03:08;;;;;;;4.57;2.08;;;;;;;4.48;67.20;96385.00;3834217;23;20508;-76
2020/12/29 00:04:47;;;;;;;6.55;1.90;;;;;;;4.53;66.77;96395.78;3840829;23;20028;-77
2020/12/29 00:06:31;;;;;;;5.55;1.92;;;;;;;4.50;66.56;96395.34;3834368;23;20017;-76
2020/12/29 00:08:03;;;;;;;6.25;2.35;;;;;;;4.59;66.98;96396.03;3840540;23;20055;-76
2020/12/29 00:09:44;;;;;;;3.97;1.90;;;;;;;4.60;66.41;96392.38;3833055;23;20451;-77
2020/12/29 00:11:15;;;;;;;3.90;1.80;;;;;;;4.61;66.71;96381.59;3834263;23;20052;-76
2020/12/29 00:13:19;;;;;;;4.15;1.50;;;;;;;4.66;65.75;96375.69;3837859;23;20048;-76
2020/12/29 00:15:06;;;;;;;4.65;1.70;;;;;;;4.67;65.58;96390.56;3834311;23;20095;-76
2020/12/29 00:16:39;;;;;;;4.07;1.77;;;;;;;4.63;65.72;96387.50;3842425;23;20045;-76
2020/12/29 00:20:44;;;;;;;4.70;1.65;;;;;;;4.73;65.26;96391.63;3833478;23;20017;-75
2020/12/29 00:22:23;;;;;;;4.22;1.60;;;;;;;4.69;65.30;96375.31;3841197;23;20017;-77
2020/12/29 00:24:17;;;;;;;3.33;1.15;;;;;;;4.72;65.02;96388.16;3837856;23;20401;-76
2020/12/29 00:28:08;;;;;;;3.28;1.20;;;;;;;4.81;64.96;96381.69;3833753;23;20017;-76
2020/12/29 00:29:43;;;;;;;3.78;1.55;;;;;;;4.75;64.84;96376.38;3833105;23;20024;-76
2020/12/29 00:31:32;;;;;;;3.33;1.30;;;;;;;4.64;64.58;96372.44;3841081;23;20021;-77
2020/12/29 00:33:23;;;;;;;3.50;1.63;;;;;;;4.53;64.70;96374.63;3834532;23;20036;-77
2020/12/29 00:36:57;;;;;;;4.65;1.50;;;;;;;4.66;64.18;96383.63;3835186;23;20013;-76
2020/12/29 00:38:37;;;;;;;3.40;1.50;;;;;;;4.67;64.31;96390.56;3832871;23;20362;-77
2020/12/29 00:40:18;;;;;;;4.38;1.38;;;;;;;4.77;64.18;96392.88;3839726;23;20032;-77
2020/12/29 00:42:06;;;;;;;3.70;1.50;;;;;;;4.73;63.83;96389.78;3833059;23;20095;-78
2020/12/29 00:43:46;;;;;;;3.05;1.13;;;;;;;4.83;63.98;96395.50;3840256;23;20379;-78
2020/12/29 00:45:17;;;;;;;3.45;1.13;;;;;;;4.82;64.14;96388.59;3841938;23;20025;-77
2020/12/29 00:47:07;;;;;;;3.08;1.25;;;;;;;4.86;63.54;96391.69;3849332;23;20024;-78
2020/12/29 00:48:39;;;;;;;3.50;1.42;;;;;;;4.77;63.73;96388.38;3842497;23;20027;-78
2020/12/29 00:50:28;;;;;;;3.97;1.60;;;;;;;4.75;63.77;96395.69;3848319;23;20025;-78
2020/12/29 00:52:24;;;;;;;3.08;1.20;;;;;;;4.82;63.69;96396.53;3842438;23;20021;-79
2020/12/29 00:53:59;;;;;;;2.80;1.20;;;;;;;4.69;64.00;96393.84;3841609;23;20025;-78
2020/12/29 00:55:30;;;;;;;3.47;1.10;;;;;;;4.67;64.21;96390.56;3847696;23;20028;-79
2020/12/29 00:57:01;;;;;;;4.00;1.52;;;;;;;4.63;64.33;96392.00;3839467;23;20021;-78
2020/12/29 01:01:05;;;;;;;3.22;1.30;;;;;;;4.66;64.49;96394.22;3844704;23;20021;-77
2020/12/29 01:03:20;;;;;;;3.92;1.73;;;;;;;4.66;64.53;96413.56;3831911;23;20029;-77
2020/12/29 01:05:02;;;;;;;4.22;1.30;;;;;;;4.67;64.40;96414.38;3840569;23;20021;-77
2020/12/29 01:06:52;;;;;;;2.97;1.10;;;;;;;4.59;64.37;96414.53;3831586;23;20029;-79
2020/12/29 01:08:24;;;;;;;3.35;1.35;;;;;;;4.70;64.37;96416.66;3834419;23;20466;-77
2020/12/29 01:09:56;;;;;;;4.22;1.60;;;;;;;4.61;64.63;96412.53;3840268;23;20025;-77
2020/12/29 01:11:28;;;;;;;3.97;1.40;;;;;;;4.60;64.81;96424.94;3833510;23;20100;-77
2020/12/29 01:13:04;;;;;;;3.13;1.10;;;;;;;4.62;64.79;96417.63;3840955;23;20108;-77
2020/12/29 01:14:50;;;;;;;3.20;1.20;;;;;;;4.62;65.02;96414.97;3832634;23;20104;-77
2020/12/29 01:16:40;;;;;;;3.00;1.00;;;;;;;4.65;65.11;96421.69;3841237;23;20084;-78
2020/12/29 01:18:21;;;;;;;3.25;1.17;;;;;;;4.54;65.82;96420.44;3834520;23;20025;-77
2020/12/29 01:19:53;;;;;;;2.80;1.10;;;;;;;4.56;66.02;96415.75;3840794;23;20758;-76
2020/12/29 01:23:23;;;;;;;3.53;1.35;;;;;;;4.56;66.62;96414.94;3833423;22;20024;-77
2020/12/29 01:24:57;;;;;;;3.63;1.05;;;;;;;4.60;66.62;96421.47;3840302;23;20025;-77
2020/12/29 01:26:42;;;;;;;2.65;1.05;;;;;;;4.54;66.93;96425.72;3833676;23;20043;-77
2020/12/29 01:28:13;;;;;;;3.05;1.02;;;;;;;4.59;67.16;96430.41;3840121;23;20025;-77
2020/12/29 01:29:55;;;;;;;3.17;1.30;;;;;;;4.60;66.90;96432.06;3833948;23;20051;-77
2020/12/29 01:31:41;;;;;;;4.57;1.10;;;;;;;4.48;67.43;96440.53;3840958;23;20110;-77
2020/12/29 01:33:13;;;;;;;2.28;0.80;;;;;;;4.59;67.39;96446.28;3832108;23;20028;-76
2020/12/29 01:34:49;;;;;;;2.40;0.80;;;;;;;4.60;67.33;96440.00;3840671;23;20046;-76
2020/12/29 01:36:21;;;;;;;5.95;1.20;;;;;;;4.63;67.24;96429.03;3832581;23;20031;-77
2020/12/29 01:37:59;;;;;;;3.13;1.17;;;;;;;4.65;67.42;96448.16;3839173;23;20025;-77
2020/12/29 01:39:31;;;;;;;2.20;0.68;;;;;;;4.65;67.47;96440.22;3832340;23;20100;-76
2020/12/29 01:46:27;;;;;;;2.20;0.80;;;;;;;4.71;67.88;96468.56;3854815;22;1913672;-76
2020/12/29 01:47:58;;;;;;;3.05;0.70;;;;;;;4.80;67.61;96456.81;3819492;23;20029;-77
2020/12/29 01:49:49;;;;;;;1.67;0.80;;;;;;;4.78;67.49;96453.53;3808886;23;20025;-76
2020/12/29 01:51:22;;;;;;;1.77;0.70;;;;;;;4.76;67.80;96452.91;3799830;23;20028;-76
2020/12/29 01:53:00;;;;;;;1.70;0.60;;;;;;;4.86;67.67;96457.84;3790665;23;20023;-76
2020/12/29 01:54:38;;;;;;;2.55;0.80;;;;;;;4.91;67.80;96465.19;3783271;23;20110;-76
2020/12/29 01:56:11;;;;;;;2.72;1.02;;;;;;;4.84;67.95;96459.88;3790176;23;20027;-76
2020/12/29 01:58:04;;;;;;;2.33;0.80;;;;;;;4.91;67.87;96454.59;3781967;23;20064;-76
2020/12/29 01:59:50;;;;;;;1.88;0.93;;;;;;;4.81;67.77;96461.09;3784567;23;21743;-76
2020/12/29 02:18:12;;;;;;;1.50;0.57;;;;;;;4.74;71.18;96472.63;3802966;23;21286;-77
2020/12/29 02:19:46;;;;;;;2.63;0.70;;;;;;;4.73;71.42;96469.16;3844787;23;20084;-77
2020/12/29 02:21:19;;;;;;;1.55;0.65;;;;;;;4.65;71.61;96479.91;3838270;23;20477;-77
2020/12/29 02:23:01;;;;;;;1.58;0.60;;;;;;;4.62;72.05;96478.47;3844839;23;20017;-76
2020/12/29 02:24:52;;;;;;;1.50;0.60;;;;;;;4.64;71.84;96483.56;3836046;23;20107;-76
2020/12/29 02:26:25;;;;;;;1.27;0.60;;;;;;;4.67;72.02;96491.13;3837272;23;20079;-78
2020/12/29 02:28:05;;;;;;;0.95;0.47;;;;;;;4.62;72.02;96491.69;3844890;23;20041;-77
2020/12/29 02:29:45;;;;;;;1.92;0.70;;;;;;;4.60;72.09;96493.72;3836906;23;21058;-77
2020/12/29 02:31:38;;;;;;;1.67;0.60;;;;;;;4.59;72.24;96494.72;3845144;23;20035;-78
2020/12/29 02:33:12;;;;;;;1.48;0.50;;;;;;;4.55;72.51;96503.22;3837343;23;20301;-76
2020/12/29 02:34:52;;;;;;;1.55;0.50;;;;;;;4.58;72.32;96503.66;3845725;23;20454;-76
2020/12/29 02:36:25;;;;;;;1.60;0.50;;;;;;;4.52;72.43;96510.56;3837307;23;20045;-77
2020/12/29 02:37:57;;;;;;;1.83;0.50;;;;;;;4.60;72.31;96512.22;3846274;23;20075;-76
2020/12/29 02:39:30;;;;;;;1.20;0.60;;;;;;;4.62;72.63;96514.69;3838012;23;20028;-77
2020/12/29 02:41:08;;;;;;;0.93;0.47;;;;;;;4.50;72.55;96509.94;3846042;23;20029;-77
2020/12/29 02:42:52;;;;;;;1.63;0.63;;;;;;;4.48;72.79;96503.22;3840129;23;20044;-77
2020/12/29 02:44:23;;;;;;;2.42;0.73;;;;;;;4.56;72.70;96507.53;3838621;23;20106;-77
2020/12/29 02:45:54;;;;;;;1.08;0.47;;;;;;;4.64;72.56;96507.38;3845711;23;20029;-76
2020/12/29 02:47:28;;;;;;;1.85;0.63;;;;;;;4.69;72.15;96504.97;3838574;23;20048;-78
2020/12/29 02:49:06;;;;;;;1.08;0.40;;;;;;;4.70;72.06;96496.03;3845952;23;20032;-75
2020/12/29 02:50:38;;;;;;;1.10;0.47;;;;;;;4.67;72.10;96496.41;3837397;23;20304;-76
2020/12/29 02:52:23;;;;;;;1.58;0.57;;;;;;;4.68;72.38;96503.34;3845921;23;20040;-77
2020/12/29 02:53:55;;;;;;;1.92;0.60;;;;;;;4.65;72.48;96515.13;3834984;23;20048;-76
2020/12/29 02:55:38;;;;;;;1.52;0.50;;;;;;;4.62;72.56;96509.41;3841544;23;20028;-76
2020/12/29 02:57:11;;;;;;;1.48;0.50;;;;;;;4.67;72.36;96501.69;3837461;23;20025;-77
2020/12/29 02:58:45;;;;;;;1.25;0.50;;;;;;;4.64;72.56;96510.00;3844818;23;20110;-77
2020/12/29 03:00:35;;;;;;;1.98;0.60;;;;;;;4.66;72.38;96492.13;3835118;23;20025;-77
2020/12/29 03:10:28;;;;;;;0.80;0.40;;;;;;;4.66;72.31;96505.34;3822351;23;19950;-77
2020/12/29 03:12:00;;;;;;;0.93;0.40;;;;;;;4.69;72.44;96518.19;3815871;23;20383;-77
2020/12/29 03:13:37;;;;;;;2.03;0.82;;;;;;;4.66;72.29;96503.53;3822319;23;20025;-78
2020/12/29 03:15:11;;;;;;;1.13;0.50;;;;;;;4.75;72.23;96525.34;3817082;23;20018;-77
2020/12/29 03:16:47;;;;;;;1.70;0.60;;;;;;;4.78;72.08;96524.97;3822760;23;20052;-78
2020/12/29 03:18:21;;;;;;;1.75;0.70;;;;;;;4.67;72.56;96518.41;3814020;23;20057;-77
2020/12/29 03:19:54;;;;;;;1.08;0.43;;;;;;;4.74;72.24;96515.78;3803943;23;20029;-77
2020/12/29 03:23:23;;;;;;;1.00;0.50;;;;;;;4.73;72.32;96515.97;3782478;23;20029;-79
2020/12/29 03:25:21;;;;;;;1.30;0.50;;;;;;;4.75;72.24;96520.06;3787233;23;20070;-77
2020/12/29 03:27:20;;;;;;;1.30;0.47;;;;;;;4.75;71.96;96525.34;3804443;23;20021;-77
2020/12/29 03:28:59;;;;;;;0.93;0.40;;;;;;;4.83;71.89;96524.41;3821558;23;20359;-76
2020/12/29 03:31:28;;;;;;;1.38;0.50;;;;;;;4.82;71.84;96526.19;3729958;23;20023;-76
2020/12/29 03:37:14;;;;;;;0.82;0.40;;;;;;;4.86;71.64;96531.94;3748813;23;20425;-78
2020/12/29 03:56:10;;;;;;;1.85;0.90;;;;;;;5.05;71.21;96541.00;3822722;23;20013;-77
2020/12/29 03:57:57;;;;;;;1.25;0.43;;;;;;;4.98;71.03;96535.66;3813661;23;20033;-77
2020/12/29 03:59:44;;;;;;;1.67;0.57;;;;;;;5.12;70.62;96543.69;3816381;23;20026;-75
2020/12/29 04:01:16;;;;;;;1.42;0.47;;;;;;;5.10;70.79;96543.88;3823818;23;20033;-77
2020/12/29 04:02:54;;;;;;;0.93;0.50;;;;;;;5.12;70.67;96538.41;3815211;23;20089;-76
2020/12/29 04:04:25;;;;;;;0.85;0.30;;;;;;;5.22;70.59;96543.31;3823257;23;20029;-76
2020/12/29 04:05:57;;;;;;;1.65;0.55;;;;;;;5.22;70.51;96546.81;3814075;23;20104;-76
2020/12/29 04:07:28;;;;;;;1.48;0.38;;;;;;;5.25;70.51;96538.44;3823086;23;20025;-77
2020/12/29 04:09:00;;;;;;;1.30;0.60;;;;;;;5.25;70.43;96553.53;3815644;23;20021;-78
2020/12/29 04:10:32;;;;;;;1.20;0.40;;;;;;;5.25;70.40;96557.00;3823175;23;20481;-77
2020/12/29 04:13:48;;;;;;;0.77;0.30;;;;;;;5.18;70.37;96540.25;3804398;23;19975;-76
2020/12/29 04:15:35;;;;;;;0.88;0.32;;;;;;;5.21;70.40;96546.97;3796647;23;20022;-77
2020/12/29 04:17:13;;;;;;;0.73;0.40;;;;;;;5.13;70.10;96535.56;3804256;23;20026;-77
2020/12/29 04:18:52;;;;;;;0.65;0.30;;;;;;;5.21;70.35;96557.56;3793785;23;20029;-76
2020/12/29 04:20:48;;;;;;;1.75;0.50;;;;;;;5.26;70.20;96557.81;3782205;23;20075;-77
2020/12/29 04:22:19;;;;;;;0.90;0.40;;;;;;;5.26;70.26;96558.63;3807983;23;20037;-77
2020/12/29 04:23:51;;;;;;;0.93;0.38;;;;;;;5.28;70.12;96564.56;3802000;23;20053;-79
2020/12/29 04:25:22;;;;;;;1.23;0.50;;;;;;;5.25;70.20;96561.47;3807570;23;20049;-77
2020/12/29 04:26:53;;;;;;;0.32;0.28;;;;;;;5.24;70.20;96558.00;3804201;23;20049;-78
2020/12/29 04:28:33;;;;;;;1.25;0.40;;;;;;;5.28;70.01;96563.75;3807167;23;20025;-78
2020/12/29 04:30:10;;;;;;;1.25;0.40;;;;;;;5.24;70.14;96552.69;3800530;23;20060;-77
2020/12/29 04:34:13;;;;;;;0.60;0.30;;;;;;;5.18;70.41;96552.69;3821701;23;20146;-76
2020/12/29 04:35:50;;;;;;;1.08;0.40;;;;;;;5.24;70.06;96552.69;3814272;23;20121;-77
2020/12/29 04:37:27;;;;;;;1.00;0.38;;;;;;;5.15;70.43;96551.22;3824928;23;20048;-76
2020/12/29 04:39:13;;;;;;;0.47;0.30;;;;;;;5.20;70.21;96553.28;3813893;23;20025;-76
2020/12/29 04:40:53;;;;;;;2.50;0.47;;;;;;;5.21;70.28;96560.22;3821041;23;20059;-77
2020/12/29 04:52:27;;;;;;;0.55;0.30;;;;;;;5.24;70.11;96559.84;3805742;23;20044;-77
2020/12/29 04:53:59;;;;;;;0.55;0.30;;;;;;;5.18;70.08;96560.63;3797348;23;20486;-76
2020/12/29 04:55:53;;;;;;;1.27;0.47;;;;;;;5.21;69.94;96561.06;3802533;23;20025;-77
2020/12/29 04:57:25;;;;;;;1.85;0.40;;;;;;;5.29;69.81;96568.03;3796007;23;20026;-77
2020/12/29 04:58:58;;;;;;;2.55;0.57;;;;;;;5.26;69.89;96574.50;3803108;23;20498;-77
2020/12/29 05:00:52;;;;;;;0.85;0.40;;;;;;;5.27;69.80;96580.66;3796809;23;20026;-77
2020/12/29 05:02:24;;;;;;;2.70;0.80;;;;;;;5.29;69.85;96582.09;3797788;23;20410;-76
2020/12/29 05:03:55;;;;;;;1.15;0.40;;;;;;;5.26;69.75;96584.31;3803760;23;20018;-76
2020/12/29 05:05:32;;;;;;;1.40;0.52;;;;;;;5.24;69.75;96589.78;3795331;23;20352;-76
2020/12/29 05:07:07;;;;;;;2.10;0.50;;;;;;;5.30;69.85;96588.19;3802920;23;20022;-77
2020/12/29 05:08:56;;;;;;;1.45;0.75;;;;;;;5.14;69.97;96579.56;3795392;23;20026;-77
2020/12/29 05:10:31;;;;;;;1.65;0.40;;;;;;;5.19;69.96;96588.75;3802411;23;20105;-77
2020/12/29 05:34:30;;;;;;;1.75;0.50;;;;;;;5.29;70.29;96636.91;3822255;23;20821;-76
2020/12/29 05:36:11;;;;;;;;;;;;;;;5.19;70.49;96645.16;3815068;23;20485;-76
2020/12/29 05:38:11;;;;;;;1.42;0.50;;;;;;;5.27;70.60;96660.09;3821135;23;19959;-77
2020/12/29 05:39:48;;;;;;;1.42;0.40;;;;;;;5.27;70.22;96663.56;3815263;23;20029;-76
2020/12/29 05:54:43;;;;;;;0.30;0.30;;;;;;;3.80;76.33;96746.75;3823314;23;19927;-77
2020/12/29 05:56:17;;;;;;;1.58;0.25;;;;;;;3.64;76.89;96758.31;3822042;23;20100;-78
2020/12/29 05:58:06;;;;;;;0.60;0.30;;;;;;;3.32;77.29;96752.34;3815865;23;20359;-77
2020/12/29 05:59:40;;;;;;;0.52;0.30;;;;;;;3.26;77.93;96778.47;3816326;23;20026;-77
2020/12/29 06:03:42;;;;;;;0.35;0.25;;;;;;;3.04;78.16;96774.84;3822373;23;20021;-78
2020/12/29 06:05:16;;;;;;;0.20;0.20;;;;;;;2.89;78.73;96780.09;3823244;23;20030;-77
2020/12/29 06:06:49;;;;;;;0.35;0.25;;;;;;;2.88;79.05;96777.63;3816883;23;20033;-77
2020/12/29 06:08:26;;;;;;;0.55;0.28;;;;;;;2.81;79.20;96782.78;3813893;23;20096;-77
2020/12/29 06:10:13;;;;;;;1.33;0.20;;;;;;;2.77;79.14;96792.03;3821018;23;20075;-78
2020/12/29 06:22:06;;;;;;;0.20;0.20;;;;;;;2.64;79.63;96830.38;3823663;23;20097;-77
2020/12/29 06:23:44;;;;;;;0.25;0.20;;;;;;;2.60;80.03;96828.22;3814455;23;20033;-77
2020/12/29 06:25:34;;;;;;;0.40;0.20;;;;;;;2.61;80.27;96829.88;3820967;23;20026;-77
2020/12/29 06:27:40;;;;;;;0.45;0.20;;;;;;;2.58;80.10;96836.31;3813881;23;20048;-76
2020/12/29 06:29:13;;;;;;;0.22;0.20;;;;;;;2.49;80.38;96834.72;3821792;23;20021;-77
2020/12/29 06:30:46;;;;;;;1.05;0.20;;;;;;;2.54;80.57;96840.31;3814449;23;20025;-77
2020/12/29 06:40:44;;;;;;;1.05;0.40;;;;;;;2.59;80.58;96874.09;3831253;23;20100;-75
2020/12/29 06:42:18;;;;;;;0.43;0.30;;;;;;;2.55;80.45;96870.94;3832257;23;20025;-75
2020/12/29 06:43:56;;;;;;;0.32;0.30;;;;;;;2.54;80.56;96871.97;3822651;23;20025;-76
2020/12/29 06:45:44;;;;;;;0.20;0.20;;;;;;;2.48;80.70;96870.00;3815981;23;20026;-75
2020/12/29 06:47:16;;;;;;;0.35;0.30;;;;;;;2.56;80.48;96885.78;3821846;23;20032;-75
2020/12/29 06:48:57;;;;;;;0.20;0.20;;;;;;;2.44;80.30;96877.41;3815998;23;20028;-75
2020/12/29 06:50:30;;;;;;;0.52;0.30;;;;;;;2.46;80.85;96886.00;3813921;23;20033;-74
2020/12/29 06:58:42;;;;;;;0.98;0.45;;;;;;;2.47;80.62;96908.72;3822912;23;20018;-77
2020/12/29 07:00:25;;;;;;;0.68;0.30;;;;;;;2.47;80.48;96902.63;3814704;23;20346;-75
2020/12/29 07:05:21;;;;;;;1.13;0.35;;;;;;;2.38;80.63;96919.47;3816334;23;20032;-76
2020/12/29 07:06:53;;;;;;;0.20;0.20;;;;;;;2.47;80.50;96923.72;3824304;23;20033;-74
2020/12/29 07:08:36;;;;;;;0.73;0.32;;;;;;;2.46;80.36;96932.63;3814913;23;20021;-77
2020/12/29 07:10:34;;;;;;;0.75;0.30;;;;;;;2.54;80.55;96927.34;3821330;23;20021;-77
2020/12/29 07:23:51;;;;;;;0.60;0.30;;;;;;;2.52;80.23;96971.50;3816495;23;20044;-75
2020/12/29 07:25:27;;;;;;;0.20;0.20;;;;;;;2.58;79.88;96976.09;3821076;23;20048;-76
2020/12/29 07:27:10;;;;;;;0.28;0.20;;;;;;;2.59;79.85;96980.38;3814322;23;20036;-76
2020/12/29 07:28:45;;;;;;;0.95;0.30;;;;;;;2.60;80.13;96986.47;3822918;23;20029;-78
2020/12/29 07:30:17;;;;;;;0.40;0.30;;;;;;;2.62;80.26;96995.03;3813636;23;20022;-76
2020/12/29 07:37:09;;;;;;;0.57;0.35;;;;;;;2.59;80.01;97000.69;3823931;23;20112;-76
2020/12/29 07:38:46;;;;;;;0.68;0.30;;;;;;;2.68;79.79;97012.00;3814820;23;20022;-75
2020/12/29 07:40:18;;;;;;;1.33;0.43;;;;;;;2.65;79.51;97021.91;3821678;23;20056;-76
2020/12/29 07:43:32;;;;;;;0.93;0.40;;;;;;;2.72;79.19;97016.78;3825286;23;20009;-77
2020/12/29 07:45:10;;;;;;;0.93;0.40;;;;;;;2.77;79.45;97034.75;3821684;23;20084;-78
2020/12/29 07:46:59;;;;;;;0.70;0.30;;;;;;;2.77;79.15;97046.13;3830468;23;20021;-78
2020/12/29 07:48:40;;;;;;;0.77;0.30;;;;;;;2.79;79.43;97043.31;3834838;23;20021;-78
2020/12/29 07:50:12;;;;;;;0.98;0.40;;;;;;;2.83;79.61;97059.63;3835742;23;20041;-78
2020/12/29 07:51:48;;;;;;;1.13;0.43;;;;;;;2.87;79.37;97061.75;3828286;23;20350;-77
2020/12/29 07:53:24;;;;;;;1.33;0.52;;;;;;;2.88;79.19;97067.88;3823402;23;20032;-76
2020/12/29 07:55:08;;;;;;;1.08;0.40;;;;;;;2.86;78.97;97075.94;3823870;23;20473;-77
2020/12/29 07:56:40;;;;;;;1.30;0.47;;;;;;;2.93;79.07;97076.91;3821218;23;20414;-76
2020/12/29 07:58:11;;;;;;;0.90;0.47;;;;;;;2.98;78.90;97079.03;3822841;23;20418;-77
2020/12/29 07:59:44;;;;;;;1.65;0.70;;;;;;;3.00;78.57;97077.06;3819715;23;20028;-76
2020/12/29 08:01:15;;;;;;;1.80;0.60;;;;;;;2.96;78.51;97073.94;3822087;23;20049;-76
2020/12/29 08:02:50;;;;;;;0.77;0.38;;;;;;;3.03;78.41;97104.94;3822336;23;20026;-77
2020/12/29 08:04:25;;;;;;;2.40;0.60;;;;;;;3.02;78.69;97096.19;3824926;23;20025;-78
2020/12/29 08:05:57;;;;;;;1.27;0.50;;;;;;;3.02;78.54;97101.47;3823358;23;20032;-77
2020/12/29 08:07:28;;;;;;;1.75;0.65;;;;;;;3.11;77.93;97099.66;3824267;23;20025;-75
2020/12/29 08:08:59;;;;;;;;;;;;;;;3.07;77.61;97108.91;3822979;23;20030;-76
2020/12/29 08:10:33;;;;;;;0.88;0.40;;;;;;;3.11;77.88;97104.94;3824039;23;20586;-76
2020/12/29 08:12:06;;;;;;;1.15;0.60;;;;;;;3.09;78.06;97120.13;3821327;23;20057;-77
2020/12/29 08:13:37;;;;;;;1.92;0.55;;;;;;;3.16;77.94;97126.34;3826549;23;20022;-76
2020/12/29 08:15:21;;;;;;;2.08;0.70;;;;;;;3.20;77.93;97135.59;3822203;23;20052;-76
2020/12/29 08:17:03;;;;;;;1.23;0.50;;;;;;;3.18;77.54;97142.88;3825500;23;20022;-76
2020/12/29 08:18:38;;;;;;;1.67;0.50;;;;;;;3.24;77.63;97158.00;3817875;23;20077;-78
2020/12/29 08:20:09;;;;;;;1.25;0.50;;;;;;;3.26;77.82;97144.63;3821633;23;20122;-77
2020/12/29 08:21:41;;;;;;;2.60;0.82;;;;;;;3.23;77.89;97153.72;3819017;23;20025;-77
2020/12/29 08:23:14;;;;;;;1.58;0.50;;;;;;;3.25;77.62;97149.09;3824092;23;20498;-78
2020/12/29 08:24:48;;;;;;;1.30;0.40;;;;;;;3.25;77.39;97151.75;3817936;23;20028;-78
2020/12/29 08:26:19;;;;;;;3.38;0.70;;;;;;;3.34;77.55;97157.00;3820121;23;20021;-76
2020/12/29 08:28:00;;;;;;;2.00;0.60;;;;;;;3.39;77.47;97166.06;3824110;23;20112;-78
2020/12/29 08:29:33;;;;;;;1.95;0.60;;;;;;;3.41;77.20;97171.16;3817728;23;20061;-77
2020/12/29 08:31:05;;;;;;;2.20;0.70;;;;;;;3.38;77.68;97171.53;3824749;23;20025;-77
2020/12/29 08:32:39;;;;;;;2.03;0.60;;;;;;;3.43;77.58;97177.09;3820973;23;20167;-76
2020/12/29 08:34:11;;;;;;;2.42;0.82;;;;;;;3.42;77.88;97180.75;3831002;23;20029;-77
2020/12/29 08:35:45;;;;;;;4.95;0.70;;;;;;;3.43;77.99;97188.50;3822773;23;20040;-77
2020/12/29 08:37:23;;;;;;;1.73;0.60;;;;;;;3.47;77.99;97189.00;3824749;23;20022;-80
2020/12/29 08:39:16;;;;;;;0.63;0.40;;;;;;;3.49;78.08;97197.59;3824692;23;20050;-78
2020/12/29 08:41:01;;;;;;;1.30;0.43;;;;;;;3.49;78.42;97192.31;3824040;23;20021;-78
2020/12/29 08:42:35;;;;;;;1.10;0.40;;;;;;;3.58;78.14;97207.13;3822726;23;20077;-77
2020/12/29 08:44:07;;;;;;;5.28;0.80;;;;;;;3.62;78.00;97207.63;3825343;23;20021;-78
2020/12/29 08:45:44;;;;;;;2.00;0.50;;;;;;;3.57;78.19;97215.22;3829259;23;20051;-78
2020/12/29 08:47:32;;;;;;;1.00;0.52;;;;;;;3.57;78.36;97217.84;3833752;23;20017;-78
2020/12/29 08:49:10;;;;;;;2.08;0.80;;;;;;;3.55;78.59;97225.13;3832150;23;20033;-78
2020/12/29 08:50:50;;;;;;;2.00;0.70;;;;;;;3.51;78.72;97226.47;3831581;23;20017;-80
2020/12/29 08:54:09;;;;;;;1.73;0.60;;;;;;;3.46;78.85;97239.34;3805099;23;20068;-79
2020/12/29 08:55:47;;;;;;;2.20;0.80;;;;;;;3.61;78.87;97236.81;3829829;23;20021;-79
2020/12/29 08:57:20;;;;;;;0.93;0.50;;;;;;;3.59;78.54;97243.09;3828243;23;20021;-79
2020/12/29 08:59:12;;;;;;;1.65;0.63;;;;;;;3.70;78.23;97236.66;3834502;23;20029;-80
2020/12/29 09:00:45;;;;;;;1.77;0.60;;;;;;;3.64;78.38;97247.06;3826631;23;20026;-80
2020/12/29 09:04:58;;;;;;;1.45;0.60;;;;;;;3.66;78.32;97267.03;3834213;23;20005;-78
2020/12/29 09:06:43;;;;;;;2.72;0.90;;;;;;;3.71;78.35;97264.72;3827545;23;20082;-78
2020/12/29 09:08:25;;;;;;;2.38;0.88;;;;;;;3.61;78.29;97264.09;3832619;23;20061;-78
2020/12/29 09:10:15;;;;;;;1.73;0.70;;;;;;;3.62;78.66;97267.53;3812906;23;20036;-79
2020/12/29 09:14:07;;;;;;;2.17;0.63;;;;;;;3.67;78.63;97281.09;3824119;23;20025;-80
2020/12/29 09:15:39;;;;;;;1.75;0.60;;;;;;;3.64;78.38;97281.41;3815682;23;20025;-79
2020/12/29 09:17:16;;;;;;;3.58;1.40;;;;;;;3.61;78.50;97284.38;3823766;23;20017;-80
2020/12/29 09:18:48;;;;;;;3.95;1.20;;;;;;;3.61;78.71;97290.50;3820116;23;20032;-79
2020/12/29 09:20:25;;;;;;;2.63;0.80;;;;;;;3.68;78.61;97311.81;3821217;23;20021;-79
2020/12/29 09:22:06;;;;;;;1.65;0.63;;;;;;;3.54;79.03;97297.47;3827533;23;20022;-80
2020/12/29 09:23:38;;;;;;;2.90;0.77;;;;;;;3.64;78.88;97310.47;3816782;23;20028;-80
2020/12/29 09:25:21;;;;;;;2.13;0.70;;;;;;;3.56;78.82;97312.13;3823323;23;20026;-78
2020/12/29 09:26:55;;;;;;;1.85;0.70;;;;;;;3.57;78.83;97319.09;3815620;23;20022;-77
2020/12/29 09:28:31;;;;;;;2.08;0.60;;;;;;;3.71;78.36;97327.31;3826399;23;20096;-80
2020/12/29 09:32:56;;;;;;;1.63;0.55;;;;;;;3.73;78.19;97335.91;3721095;23;20032;-81
2020/12/29 09:34:53;;;;;;;5.10;0.88;;;;;;;3.85;78.34;97342.50;3814253;23;20028;-80
2020/12/29 09:36:32;;;;;;;2.45;0.70;;;;;;;3.73;78.17;97341.19;3828692;23;20029;-80
2020/12/29 09:38:13;;;;;;;1.98;0.90;;;;;;;3.63;78.20;97344.00;3834100;23;20029;-78
2020/12/29 09:39:44;;;;;;;1.77;0.60;;;;;;;3.69;78.32;97353.91;3826102;23;20029;-78
2020/12/29 09:41:16;;;;;;;2.33;0.70;;;;;;;3.75;78.17;97344.47;3834732;23;20025;-81
2020/12/29 09:43:01;;;;;;;2.03;0.70;;;;;;;3.83;78.04;97357.69;3827736;23;20021;-77
2020/12/29 09:44:34;;;;;;;2.55;1.20;;;;;;;3.79;77.45;97344.97;3826668;23;20037;-78
2020/12/29 09:46:05;;;;;;;2.15;0.68;;;;;;;3.86;77.93;97357.34;3834537;23;20027;-79
2020/12/29 09:47:40;;;;;;;1.92;0.60;;;;;;;3.84;77.49;97363.78;3832560;23;22558;-80
2020/12/29 09:49:14;;;;;;;1.35;0.55;;;;;;;3.88;77.56;97365.91;3831526;23;20073;-78
2020/12/29 09:50:45;;;;;;;2.03;0.70;;;;;;;3.91;77.54;97370.06;3833252;23;20028;-78
2020/12/29 09:52:16;;;;;;;2.05;0.80;;;;;;;3.92;77.31;97370.88;3835298;23;20022;-78
2020/12/29 09:53:55;;;;;;;1.70;0.70;;;;;;;3.90;77.37;97374.50;3832369;23;20088;-77
2020/12/29 09:55:37;;;;;;;2.33;0.80;;;;;;;3.84;77.42;97385.75;3827268;23;20029;-78
2020/12/29 09:57:11;;;;;;;1.63;0.80;;;;;;;3.88;76.83;97380.97;3819613;23;20021;-79
2020/12/29 09:59:18;;;;;;;1.60;0.60;;;;;;;3.92;76.84;97397.31;3822475;23;20025;-79
2020/12/29 10:01:04;;;;;;;1.98;0.60;;;;;;;3.86;76.89;97398.81;3822578;23;20025;-79
2020/12/29 10:02:35;;;;;;;2.92;0.70;;;;;;;3.95;76.22;97408.38;3822953;23;20021;-77
2020/12/29 10:04:07;;;;;;;0.98;0.50;;;;;;;3.95;76.01;97404.91;3823110;23;20029;-77
2020/12/29 10:05:39;;;;;;;1.52;0.60;;;;;;;3.98;75.83;97407.22;3820078;23;20024;-78
2020/12/29 10:07:10;;;;;;;1.77;0.68;;;;;;;4.03;75.60;97410.19;3822614;23;20032;-77
2020/12/29 10:08:42;;;;;;;1.58;0.50;;;;;;;4.04;75.42;97412.66;3820344;23;20067;-77
2020/12/29 10:10:14;;;;;;;1.15;0.50;;;;;;;4.10;75.63;97421.75;3823256;23;20061;-77
2020/12/29 10:11:47;;;;;;;1.83;0.65;;;;;;;4.10;75.68;97413.81;3819114;23;20022;-78
2020/12/29 10:13:18;;;;;;;1.75;0.60;;;;;;;4.11;75.62;97427.88;3823036;23;20022;-78
2020/12/29 10:14:50;;;;;;;1.90;0.77;;;;;;;4.15;75.49;97419.44;3820142;23;20351;-78
2020/12/29 10:16:22;;;;;;;1.85;0.60;;;;;;;4.18;75.38;97429.66;3822943;23;20048;-78
2020/12/29 10:17:54;;;;;;;1.83;0.70;;;;;;;4.26;75.58;97428.81;3823129;23;20036;-78
2020/12/29 10:19:25;;;;;;;1.40;0.60;;;;;;;4.23;75.30;97434.44;3823049;23;20451;-78
2020/12/29 10:21:06;;;;;;;1.95;0.70;;;;;;;4.21;75.49;97447.84;3820263;23;20459;-79
2020/12/29 10:22:37;;;;;;;2.80;0.70;;;;;;;4.20;75.16;97432.97;3826263;23;20037;-79
2020/12/29 10:24:11;;;;;;;1.65;0.52;;;;;;;4.20;74.89;97443.53;3820764;23;20021;-78
2020/12/29 10:25:42;;;;;;;2.42;0.70;;;;;;;4.17;75.09;97458.91;3821739;23;20370;-79
2020/12/29 10:27:14;;;;;;;2.10;0.70;;;;;;;4.15;75.24;97459.09;3822041;23;20397;-80
2020/12/29 10:28:47;;;;;;;2.25;0.73;;;;;;;4.14;75.57;97462.72;3822818;23;20080;-79
2020/12/29 10:30:18;;;;;;;2.25;0.77;;;;;;;4.11;75.90;97465.69;3819690;23;20029;-78
2020/12/29 10:31:52;;;;;;;2.45;0.93;;;;;;;4.11;76.10;97463.06;3823067;23;20471;-78
2020/12/29 10:33:23;;;;;;;2.05;0.73;;;;;;;4.15;75.77;97458.25;3819483;23;20040;-79
2020/12/29 10:34:59;;;;;;;2.30;0.57;;;;;;;4.20;75.77;97456.75;3821057;23;20323;-79
2020/12/29 10:36:34;;;;;;;1.55;0.52;;;;;;;4.13;75.96;97463.72;3821748;23;20026;-78
2020/12/29 10:38:06;;;;;;;3.65;1.55;;;;;;;4.21;75.63;97476.94;3821365;23;20028;-78
2020/12/29 10:39:37;;;;;;;2.30;0.70;;;;;;;4.18;75.19;97471.16;3819426;23;20323;-79
2020/12/29 10:41:08;;;;;;;;;;;;;;;4.06;75.46;97476.78;3825042;23;20027;-80
2020/12/29 10:42:40;;;;;;;1.52;0.52;;;;;;;4.13;75.36;97482.22;3822246;23;20257;-79